Bitten Theresa — 9HA2337 — position and weather

sailwx.info

Track history (hours):
 
Tides and Currents Weather Stations Pressure Air Temp Water Temp Dewpoint Dewpoint Depression Visibility Wind Speed Wind Dir Waves Ship Positions

Bitten Theresa

Last reported at 2018-Jan-12 09:04 UTC. Time now 2018-Feb-20 17:52 UTC.
Position N 47°17' W 002°12'.
Warning: this ship's position is 39 days out of date.

Length 106 m; draft 4.2 m.

Type: Tanker. MMSI: 248373000.

Date/timePositionNaut miles runAvg speedWind from/ knotsBaromVisibWave heightAir tempDewpointWater temp
2018-Jan-12 09:04N 47°17' W 002°12'0 0.1
2018-Jan-12 09:00N 47°17' W 002°12'0 0.6
2018-Jan-12 08:22N 47°16' W 002°12'0 0.1
2018-Jan-12 07:59N 47°16' W 002°12'1 2.6
2018-Jan-12 07:30N 47°15' W 002°13'510.0
2018-Jan-12 07:00N 47°11' W 002°18'5 9.8
2018-Jan-12 06:30N 47°07' W 002°22'3 5.3
2018-Jan-12 06:00N 47°05' W 002°24'4 7.3
2018-Jan-12 05:29N 47°03' W 002°29'4 7.9
2018-Jan-12 05:00N 47°01' W 002°34'5 8.0
2018-Jan-12 04:21N 46°59' W 002°41'5 8.3
2018-Jan-12 03:47N 47°01' W 002°48'3 8.3
2018-Jan-12 03:28N 47°01' W 002°51'4 8.4
2018-Jan-12 02:59N 47°02' W 002°57'4 8.6
2018-Jan-12 02:30N 47°03' W 003°03'5 8.7
2018-Jan-12 01:56N 47°04' W 003°10'4 9.0
2018-Jan-12 01:30N 47°06' W 003°15'7 4.6
2018-Jan-12 00:06N 47°03' W 003°07'3 7.9
2018-Jan-11 23:44N 47°02' W 003°03'3 6.5
2018-Jan-11 23:15N 47°02' W 002°58'2 8.0
2018-Jan-11 23:00N 47°03' W 003°01'4 8.4
2018-Jan-11 22:30N 47°04' W 003°07'4 8.6
2018-Jan-11 22:00N 47°05' W 003°13'6 9.0
2018-Jan-11 21:20N 47°06' W 003°21'4 8.8
2018-Jan-11 20:55N 47°08' W 003°26'4 8.8
2018-Jan-11 20:29N 47°10' W 003°31'4 8.9
2018-Jan-11 19:59N 47°12' W 003°36'4 8.8
2018-Jan-11 19:30N 47°15' W 003°42'4 8.8
2018-Jan-11 19:00N 47°17' W 003°47'4 8.6
2018-Jan-11 18:30N 47°19' W 003°52'17 8.7
2018-Jan-11 16:33N 47°28' W 004°14'29 8.6
2018-Jan-11 13:10N 47°43' W 004°51'1 8.6
2018-Jan-11 13:00N 47°44' W 004°53'4 8.7
2018-Jan-11 12:30N 47°46' W 004°59'510.3
2018-Jan-11 12:00N 47°48' W 005°05'1110.3
2018-Jan-11 10:58N 47°54' W 005°19'1010.0
2018-Jan-11 09:58N 48°01' W 005°30'1010.3
2018-Jan-11 08:59N 48°09' W 005°38'131 9.5
2018-Jan-10 19:06N 50°20' W 006°01'1 9.9
2018-Jan-10 18:57N 50°21' W 006°01'5 9.9
2018-Jan-10 18:25N 50°26' W 006°02'710.0
2018-Jan-10 17:43N 50°33' W 006°02'410.2
2018-Jan-10 17:20N 50°37' W 006°02'1410.2
2018-Jan-10 15:55N 50°52' W 006°03'181 9.0
2018-Jan-09 19:44N 53°35' W 003°53'313.1
2018-Jan-09 19:29N 53°34' W 003°48'612.8
2018-Jan-09 19:00N 53°34' W 003°38'712.9
2018-Jan-09 18:30N 53°33' W 003°27'612.3
2018-Jan-09 18:00N 53°32' W 003°17'510.7
2018-Jan-09 17:30N 53°32' W 003°08'611.3
2018-Jan-09 17:00N 53°27' W 003°02'1 2.3
2018-Jan-09 16:30N 53°26' W 003°01'0 0.1
2018-Jan-09 16:00N 53°27' W 003°00'1 1.5
2018-Jan-09 15:30N 53°27' W 003°01'0 0.5
2018-Jan-09 14:53N 53°27' W 003°01'0 0.0
2018-Jan-09 14:29N 53°27' W 003°01'0 0.0
2018-Jan-09 13:59N 53°27' W 003°01'0 0.0
2018-Jan-09 13:29N 53°27' W 003°01'0 0.0
2018-Jan-09 12:59N 53°27' W 003°01'0 0.0
2018-Jan-09 12:26N 53°27' W 003°01'0 0.0
2018-Jan-09 11:59N 53°27' W 003°01'0 0.0
2018-Jan-09 11:29N 53°27' W 003°01'0 0.0
2018-Jan-09 10:59N 53°27' W 003°01'0 0.0
2018-Jan-09 10:26N 53°27' W 003°01'0 0.0
2018-Jan-09 09:56N 53°27' W 003°01'0 0.0
2018-Jan-09 09:23N 53°27' W 003°01'0 0.0
2018-Jan-09 08:56N 53°27' W 003°01'0 0.0
2018-Jan-09 08:29N 53°27' W 003°01'0 0.0
2018-Jan-09 07:59N 53°27' W 003°01'0 0.0
2018-Jan-09 07:29N 53°27' W 003°01'0 0.0
2018-Jan-09 06:59N 53°27' W 003°01'0 0.0
2018-Jan-09 06:29N 53°27' W 003°01'0 0.0
2018-Jan-09 05:59N 53°27' W 003°01'0 0.0
2018-Jan-09 05:29N 53°27' W 003°01'0 0.0
2018-Jan-09 04:59N 53°27' W 003°01'0 0.0
2018-Jan-09 04:29N 53°27' W 003°01'0 0.0
2018-Jan-09 03:59N 53°27' W 003°01'0 0.0
2018-Jan-09 03:29N 53°27' W 003°01'0 0.0
2018-Jan-09 02:59N 53°27' W 003°01'0 0.0
2018-Jan-09 02:29N 53°27' W 003°01'0 0.0
2018-Jan-09 01:59N 53°27' W 003°01'0 0.0
2018-Jan-09 01:29N 53°27' W 003°01'0 0.0
2018-Jan-09 00:56N 53°27' W 003°01'0 0.0
2018-Jan-09 00:26N 53°27' W 003°01'0 0.0
2018-Jan-08 23:59N 53°27' W 003°01'0 0.0
2018-Jan-08 23:23N 53°27' W 003°01'0 0.0
2018-Jan-08 22:59N 53°27' W 003°01'0 0.0
2018-Jan-08 22:29N 53°27' W 003°01'0 0.0
2018-Jan-08 21:59N 53°27' W 003°01'0 0.0
2018-Jan-08 21:29N 53°27' W 003°01'0 0.0
2018-Jan-08 20:59N 53°27' W 003°01'0 0.0
2018-Jan-08 20:26N 53°27' W 003°01'0 0.0
2018-Jan-08 19:59N 53°27' W 003°01'0 0.0
2018-Jan-08 19:29N 53°27' W 003°01'0 0.0
2018-Jan-08 18:56N 53°27' W 003°01'0 0.0
2018-Jan-08 18:29N 53°27' W 003°01'0 0.0
2018-Jan-08 17:59N 53°27' W 003°01'0 0.0
2018-Jan-08 17:29N 53°27' W 003°01'0 0.0
2018-Jan-08 16:59N 53°27' W 003°01'0 0.0
2018-Jan-08 16:29N 53°27' W 003°01'0 0.0
2018-Jan-08 15:53N 53°27' W 003°01'0 0.0
2018-Jan-08 15:29N 53°27' W 003°01'0 0.0
2018-Jan-08 14:59N 53°27' W 003°01'0 0.0
2018-Jan-08 14:30N 53°27' W 003°01'0 0.6
2018-Jan-08 14:00N 53°27' W 003°01'0 0.9
2018-Jan-08 13:30N 53°27' W 003°01'0 0.7
2018-Jan-08 13:00N 53°27' W 003°00'0 0.0
2018-Jan-08 12:29N 53°27' W 003°00'0 0.0
2018-Jan-08 11:59N 53°27' W 003°00'0 0.0
2018-Jan-08 11:29N 53°27' W 003°00'0 0.0
2018-Jan-08 10:59N 53°27' W 003°00'0 0.0
2018-Jan-08 10:26N 53°27' W 003°00'0 0.0
2018-Jan-08 09:59N 53°27' W 003°00'0 0.0
2018-Jan-08 09:29N 53°27' W 003°00'0 0.0
2018-Jan-08 08:59N 53°27' W 003°00'0 0.0
2018-Jan-08 08:29N 53°27' W 003°00'0 0.0
2018-Jan-08 07:59N 53°27' W 003°00'0 0.0
2018-Jan-08 07:29N 53°27' W 003°00'0 0.0
2018-Jan-08 06:59N 53°27' W 003°00'0 0.0
2018-Jan-08 06:29N 53°27' W 003°00'0 0.0
2018-Jan-08 05:59N 53°27' W 003°00'0 0.0
2018-Jan-08 05:26N 53°27' W 003°00'0 0.0
2018-Jan-08 04:59N 53°27' W 003°00'0 0.0
2018-Jan-08 04:29N 53°27' W 003°00'0 0.0
2018-Jan-08 03:59N 53°27' W 003°00'0 0.0
2018-Jan-08 03:29N 53°27' W 003°00'0 0.0
2018-Jan-08 02:59N 53°27' W 003°00'0 0.0
2018-Jan-08 02:23N 53°27' W 003°00'0 0.0
2018-Jan-08 01:59N 53°27' W 003°00'0 0.0
2018-Jan-08 01:29N 53°27' W 003°00'0 0.0
2018-Jan-08 00:56N 53°27' W 003°00'0 0.0
2018-Jan-08 00:29N 53°27' W 003°00'0 0.0
2018-Jan-07 23:59N 53°27' W 003°00'0 0.0
2018-Jan-07 23:29N 53°27' W 003°00'0 0.0
2018-Jan-07 22:59N 53°27' W 003°00'0 0.0
2018-Jan-07 22:29N 53°27' W 003°00'0 0.0
2018-Jan-07 21:59N 53°27' W 003°00'0 0.0
2018-Jan-07 21:29N 53°27' W 003°00'0 0.0
2018-Jan-07 20:59N 53°27' W 003°00'0 0.0
2018-Jan-07 20:29N 53°27' W 003°00'0 0.0
2018-Jan-07 19:59N 53°27' W 003°00'0 0.0
2018-Jan-07 19:29N 53°27' W 003°00'0 0.0
2018-Jan-07 18:59N 53°27' W 003°00'0 0.0
2018-Jan-07 18:29N 53°27' W 003°00'0 0.0
2018-Jan-07 17:59N 53°27' W 003°00'0 0.0
2018-Jan-07 17:29N 53°27' W 003°00'0 0.0
2018-Jan-07 16:59N 53°27' W 003°00'0 0.0
2018-Jan-07 16:30N 53°27' W 003°00'0 0.2
2018-Jan-07 16:00N 53°27' W 003°00'0 0.3
2018-Jan-07 15:30N 53°26' W 003°01'1 1.2
2018-Jan-07 15:01N 53°26' W 003°02'510.4
2018-Jan-07 14:30N 53°31' W 003°07'510.2
2018-Jan-07 14:00N 53°31' W 003°15'5 9.1
2018-Jan-07 13:31N 53°31' W 003°23'2 4.3
2018-Jan-07 13:00N 53°30' W 003°26'1 1.6
2018-Jan-07 12:30N 53°31' W 003°28'2 4.4
2018-Jan-07 12:00N 53°31' W 003°31'20 5.3
2018-Jan-07 08:17N 53°40' W 004°00'  
2018-Jan-04 20:00N 47°20' W 003°52'8 6.4
2018-Jan-04 18:47N 47°18' W 003°41'50 4.7
2018-Jan-04 08:12N 47°03' W 002°30'1 7.3
2018-Jan-04 08:00N 47°04' W 002°28'4 7.1
2018-Jan-04 07:30N 47°06' W 002°24'3 5.4
2018-Jan-04 06:59N 47°09' W 002°22'4 7.1
2018-Jan-04 06:30N 47°11' W 002°18'4 8.5
2018-Jan-04 06:00N 47°14' W 002°15'3 5.5
2018-Jan-04 05:30N 47°16' W 002°12'1 1.2
2018-Jan-04 05:00N 47°17' W 002°12'0 0.4
2018-Jan-04 04:29N 47°17' W 002°12'0 0.0
2018-Jan-03 06:36N 47°17' W 002°12'0 0.1
2018-Jan-03 06:30N 47°17' W 002°12'0 0.5
2018-Jan-03 06:00N 47°16' W 002°12'0 0.4
2018-Jan-03 05:25N 47°16' W 002°12'1 2.7
2018-Jan-03 05:00N 47°15' W 002°13'0 0.3
2018-Jan-03 04:30N 47°15' W 002°13'4 8.1
2018-Jan-03 03:59N 47°12' W 002°17'510.0
2018-Jan-03 03:31N 47°08' W 002°21'3 6.0
2018-Jan-03 03:00N 47°06' W 002°24'32 8.6
2018-Jan-02 23:14N 47°04' W 003°11'1110.0
2018-Jan-02 22:11N 47°09' W 003°25'2 9.9
2018-Jan-02 21:59N 47°10' W 003°28'5 9.8
2018-Jan-02 21:30N 47°12' W 003°34'5 9.7
2018-Jan-02 21:00N 47°14' W 003°40'5 9.7
2018-Jan-02 20:30N 47°17' W 003°46'5 9.8
2018-Jan-02 20:00N 47°20' W 003°52'510.0
2018-Jan-02 19:30N 47°22' W 003°58'710.1
2018-Jan-02 18:48N 47°26' W 004°07'310.4
2018-Jan-02 18:28N 47°27' W 004°12'610.6
2018-Jan-02 17:52N 47°31' W 004°20'2510.6
2018-Jan-02 15:33N 47°44' W 004°51'010.0
2018-Jan-02 15:31N 47°44' W 004°51'510.0
2018-Jan-02 15:00N 47°46' W 004°58'5 9.7
2018-Jan-02 14:30N 47°49' W 005°04'5 9.3
2018-Jan-02 13:59N 47°52' W 005°09'9 8.7
2018-Jan-02 12:58N 47°57' W 005°20'9 8.7
2018-Jan-02 11:59N 48°04' W 005°28'9 9.2
2018-Jan-02 10:59N 48°12' W 005°36'  
Track history (hours):
 
Tides and Currents Weather Stations Pressure Air Temp Water Temp Dewpoint Dewpoint Depression Visibility Wind Speed Wind Dir Waves Ship Positions

Bitten Theresa

Last reported at 2018-Jan-12 09:04 UTC. Time now 2018-Feb-20 17:52 UTC.
Position N 47°17' W 002°12'.
Warning: this ship's position is 39 days out of date.

Length 106 m; draft 4.2 m.

Type: Tanker. MMSI: 248373000.

Date/timePositionNaut miles runAvg speedWind from/ knotsBaromVisibWave heightAir tempDewpointWater temp
2018-Jan-12 09:04N 47°17' W 002°12'0 0.1
2018-Jan-12 09:00N 47°17' W 002°12'0 0.6
2018-Jan-12 08:22N 47°16' W 002°12'0 0.1
2018-Jan-12 07:59N 47°16' W 002°12'1 2.6
2018-Jan-12 07:30N 47°15' W 002°13'510.0
2018-Jan-12 07:00N 47°11' W 002°18'5 9.8
2018-Jan-12 06:30N 47°07' W 002°22'3 5.3
2018-Jan-12 06:00N 47°05' W 002°24'4 7.3
2018-Jan-12 05:29N 47°03' W 002°29'4 7.9
2018-Jan-12 05:00N 47°01' W 002°34'5 8.0
2018-Jan-12 04:21N 46°59' W 002°41'5 8.3
2018-Jan-12 03:47N 47°01' W 002°48'3 8.3
2018-Jan-12 03:28N 47°01' W 002°51'4 8.4
2018-Jan-12 02:59N 47°02' W 002°57'4 8.6
2018-Jan-12 02:30N 47°03' W 003°03'5 8.7
2018-Jan-12 01:56N 47°04' W 003°10'4 9.0
2018-Jan-12 01:30N 47°06' W 003°15'7 4.6
2018-Jan-12 00:06N 47°03' W 003°07'3 7.9
2018-Jan-11 23:44N 47°02' W 003°03'3 6.5
2018-Jan-11 23:15N 47°02' W 002°58'2 8.0
2018-Jan-11 23:00N 47°03' W 003°01'4 8.4
2018-Jan-11 22:30N 47°04' W 003°07'4 8.6
2018-Jan-11 22:00N 47°05' W 003°13'6 9.0
2018-Jan-11 21:20N 47°06' W 003°21'4 8.8
2018-Jan-11 20:55N 47°08' W 003°26'4 8.8
2018-Jan-11 20:29N 47°10' W 003°31'4 8.9
2018-Jan-11 19:59N 47°12' W 003°36'4 8.8
2018-Jan-11 19:30N 47°15' W 003°42'4 8.8
2018-Jan-11 19:00N 47°17' W 003°47'4 8.6
2018-Jan-11 18:30N 47°19' W 003°52'17 8.7
2018-Jan-11 16:33N 47°28' W 004°14'29 8.6
2018-Jan-11 13:10N 47°43' W 004°51'1 8.6
2018-Jan-11 13:00N 47°44' W 004°53'4 8.7
2018-Jan-11 12:30N 47°46' W 004°59'510.3
2018-Jan-11 12:00N 47°48' W 005°05'1110.3
2018-Jan-11 10:58N 47°54' W 005°19'1010.0
2018-Jan-11 09:58N 48°01' W 005°30'1010.3
2018-Jan-11 08:59N 48°09' W 005°38'131 9.5
2018-Jan-10 19:06N 50°20' W 006°01'1 9.9
2018-Jan-10 18:57N 50°21' W 006°01'5 9.9
2018-Jan-10 18:25N 50°26' W 006°02'710.0
2018-Jan-10 17:43N 50°33' W 006°02'410.2
2018-Jan-10 17:20N 50°37' W 006°02'1410.2
2018-Jan-10 15:55N 50°52' W 006°03'181 9.0
2018-Jan-09 19:44N 53°35' W 003°53'313.1
2018-Jan-09 19:29N 53°34' W 003°48'612.8
2018-Jan-09 19:00N 53°34' W 003°38'712.9
2018-Jan-09 18:30N 53°33' W 003°27'612.3
2018-Jan-09 18:00N 53°32' W 003°17'510.7
2018-Jan-09 17:30N 53°32' W 003°08'611.3
2018-Jan-09 17:00N 53°27' W 003°02'1 2.3
2018-Jan-09 16:30N 53°26' W 003°01'0 0.1
2018-Jan-09 16:00N 53°27' W 003°00'1 1.5
2018-Jan-09 15:30N 53°27' W 003°01'0 0.5
2018-Jan-09 14:53N 53°27' W 003°01'0 0.0
2018-Jan-09 14:29N 53°27' W 003°01'0 0.0
2018-Jan-09 13:59N 53°27' W 003°01'0 0.0
2018-Jan-09 13:29N 53°27' W 003°01'0 0.0
2018-Jan-09 12:59N 53°27' W 003°01'0 0.0
2018-Jan-09 12:26N 53°27' W 003°01'0 0.0
2018-Jan-09 11:59N 53°27' W 003°01'0 0.0
2018-Jan-09 11:29N 53°27' W 003°01'0 0.0
2018-Jan-09 10:59N 53°27' W 003°01'0 0.0
2018-Jan-09 10:26N 53°27' W 003°01'0 0.0
2018-Jan-09 09:56N 53°27' W 003°01'0 0.0
2018-Jan-09 09:23N 53°27' W 003°01'0 0.0
2018-Jan-09 08:56N 53°27' W 003°01'0 0.0
2018-Jan-09 08:29N 53°27' W 003°01'0 0.0
2018-Jan-09 07:59N 53°27' W 003°01'0 0.0
2018-Jan-09 07:29N 53°27' W 003°01'0 0.0
2018-Jan-09 06:59N 53°27' W 003°01'0 0.0
2018-Jan-09 06:29N 53°27' W 003°01'0 0.0
2018-Jan-09 05:59N 53°27' W 003°01'0 0.0
2018-Jan-09 05:29N 53°27' W 003°01'0 0.0
2018-Jan-09 04:59N 53°27' W 003°01'0 0.0
2018-Jan-09 04:29N 53°27' W 003°01'0 0.0
2018-Jan-09 03:59N 53°27' W 003°01'0 0.0
2018-Jan-09 03:29N 53°27' W 003°01'0 0.0
2018-Jan-09 02:59N 53°27' W 003°01'0 0.0
2018-Jan-09 02:29N 53°27' W 003°01'0 0.0
2018-Jan-09 01:59N 53°27' W 003°01'0 0.0
2018-Jan-09 01:29N 53°27' W 003°01'0 0.0
2018-Jan-09 00:56N 53°27' W 003°01'0 0.0
2018-Jan-09 00:26N 53°27' W 003°01'0 0.0
2018-Jan-08 23:59N 53°27' W 003°01'0 0.0
2018-Jan-08 23:23N 53°27' W 003°01'0 0.0
2018-Jan-08 22:59N 53°27' W 003°01'0 0.0
2018-Jan-08 22:29N 53°27' W 003°01'0 0.0
2018-Jan-08 21:59N 53°27' W 003°01'0 0.0
2018-Jan-08 21:29N 53°27' W 003°01'0 0.0
2018-Jan-08 20:59N 53°27' W 003°01'0 0.0
2018-Jan-08 20:26N 53°27' W 003°01'0 0.0
2018-Jan-08 19:59N 53°27' W 003°01'0 0.0
2018-Jan-08 19:29N 53°27' W 003°01'0 0.0
2018-Jan-08 18:56N 53°27' W 003°01'0 0.0
2018-Jan-08 18:29N 53°27' W 003°01'0 0.0
2018-Jan-08 17:59N 53°27' W 003°01'0 0.0
2018-Jan-08 17:29N 53°27' W 003°01'0 0.0
2018-Jan-08 16:59N 53°27' W 003°01'0 0.0
2018-Jan-08 16:29N 53°27' W 003°01'0 0.0
2018-Jan-08 15:53N 53°27' W 003°01'0 0.0
2018-Jan-08 15:29N 53°27' W 003°01'0 0.0
2018-Jan-08 14:59N 53°27' W 003°01'0 0.0
2018-Jan-08 14:30N 53°27' W 003°01'0 0.6
2018-Jan-08 14:00N 53°27' W 003°01'0 0.9
2018-Jan-08 13:30N 53°27' W 003°01'0 0.7
2018-Jan-08 13:00N 53°27' W 003°00'0 0.0
2018-Jan-08 12:29N 53°27' W 003°00'0 0.0
2018-Jan-08 11:59N 53°27' W 003°00'0 0.0
2018-Jan-08 11:29N 53°27' W 003°00'0 0.0
2018-Jan-08 10:59N 53°27' W 003°00'0 0.0
2018-Jan-08 10:26N 53°27' W 003°00'0 0.0
2018-Jan-08 09:59N 53°27' W 003°00'0 0.0
2018-Jan-08 09:29N 53°27' W 003°00'0 0.0
2018-Jan-08 08:59N 53°27' W 003°00'0 0.0
2018-Jan-08 08:29N 53°27' W 003°00'0 0.0
2018-Jan-08 07:59N 53°27' W 003°00'0 0.0
2018-Jan-08 07:29N 53°27' W 003°00'0 0.0
2018-Jan-08 06:59N 53°27' W 003°00'0 0.0
2018-Jan-08 06:29N 53°27' W 003°00'0 0.0
2018-Jan-08 05:59N 53°27' W 003°00'0 0.0
2018-Jan-08 05:26N 53°27' W 003°00'0 0.0
2018-Jan-08 04:59N 53°27' W 003°00'0 0.0
2018-Jan-08 04:29N 53°27' W 003°00'0 0.0
2018-Jan-08 03:59N 53°27' W 003°00'0 0.0
2018-Jan-08 03:29N 53°27' W 003°00'0 0.0
2018-Jan-08 02:59N 53°27' W 003°00'0 0.0
2018-Jan-08 02:23N 53°27' W 003°00'0 0.0
2018-Jan-08 01:59N 53°27' W 003°00'0 0.0
2018-Jan-08 01:29N 53°27' W 003°00'0 0.0
2018-Jan-08 00:56N 53°27' W 003°00'0 0.0
2018-Jan-08 00:29N 53°27' W 003°00'0 0.0
2018-Jan-07 23:59N 53°27' W 003°00'0 0.0
2018-Jan-07 23:29N 53°27' W 003°00'0 0.0
2018-Jan-07 22:59N 53°27' W 003°00'0 0.0
2018-Jan-07 22:29N 53°27' W 003°00'0 0.0
2018-Jan-07 21:59N 53°27' W 003°00'0 0.0
2018-Jan-07 21:29N 53°27' W 003°00'0 0.0
2018-Jan-07 20:59N 53°27' W 003°00'0 0.0
2018-Jan-07 20:29N 53°27' W 003°00'0 0.0
2018-Jan-07 19:59N 53°27' W 003°00'0 0.0
2018-Jan-07 19:29N 53°27' W 003°00'0 0.0
2018-Jan-07 18:59N 53°27' W 003°00'0 0.0
2018-Jan-07 18:29N 53°27' W 003°00'0 0.0
2018-Jan-07 17:59N 53°27' W 003°00'0 0.0
2018-Jan-07 17:29N 53°27' W 003°00'0 0.0
2018-Jan-07 16:59N 53°27' W 003°00'0 0.0
2018-Jan-07 16:30N 53°27' W 003°00'0 0.2
2018-Jan-07 16:00N 53°27' W 003°00'0 0.3
2018-Jan-07 15:30N 53°26' W 003°01'1 1.2
2018-Jan-07 15:01N 53°26' W 003°02'510.4
2018-Jan-07 14:30N 53°31' W 003°07'510.2
2018-Jan-07 14:00N 53°31' W 003°15'5 9.1
2018-Jan-07 13:31N 53°31' W 003°23'2 4.3
2018-Jan-07 13:00N 53°30' W 003°26'1 1.6
2018-Jan-07 12:30N 53°31' W 003°28'2 4.4
2018-Jan-07 12:00N 53°31' W 003°31'20 5.3
2018-Jan-07 08:17N 53°40' W 004°00'  
2018-Jan-04 20:00N 47°20' W 003°52'8 6.4
2018-Jan-04 18:47N 47°18' W 003°41'50 4.7
2018-Jan-04 08:12N 47°03' W 002°30'1 7.3
2018-Jan-04 08:00N 47°04' W 002°28'4 7.1
2018-Jan-04 07:30N 47°06' W 002°24'3 5.4
2018-Jan-04 06:59N 47°09' W 002°22'4 7.1
2018-Jan-04 06:30N 47°11' W 002°18'4 8.5
2018-Jan-04 06:00N 47°14' W 002°15'3 5.5
2018-Jan-04 05:30N 47°16' W 002°12'1 1.2
2018-Jan-04 05:00N 47°17' W 002°12'0 0.4
2018-Jan-04 04:29N 47°17' W 002°12'0 0.0
2018-Jan-03 06:36N 47°17' W 002°12'0 0.1
2018-Jan-03 06:30N 47°17' W 002°12'0 0.5
2018-Jan-03 06:00N 47°16' W 002°12'0 0.4
2018-Jan-03 05:25N 47°16' W 002°12'1 2.7
2018-Jan-03 05:00N 47°15' W 002°13'0 0.3
2018-Jan-03 04:30N 47°15' W 002°13'4 8.1
2018-Jan-03 03:59N 47°12' W 002°17'510.0
2018-Jan-03 03:31N 47°08' W 002°21'3 6.0
2018-Jan-03 03:00N 47°06' W 002°24'32 8.6
2018-Jan-02 23:14N 47°04' W 003°11'1110.0
2018-Jan-02 22:11N 47°09' W 003°25'2 9.9
2018-Jan-02 21:59N 47°10' W 003°28'5 9.8
2018-Jan-02 21:30N 47°12' W 003°34'5 9.7
2018-Jan-02 21:00N 47°14' W 003°40'5 9.7
2018-Jan-02 20:30N 47°17' W 003°46'5 9.8
2018-Jan-02 20:00N 47°20' W 003°52'510.0
2018-Jan-02 19:30N 47°22' W 003°58'710.1
2018-Jan-02 18:48N 47°26' W 004°07'310.4
2018-Jan-02 18:28N 47°27' W 004°12'610.6
2018-Jan-02 17:52N 47°31' W 004°20'2510.6
2018-Jan-02 15:33N 47°44' W 004°51'010.0
2018-Jan-02 15:31N 47°44' W 004°51'510.0
2018-Jan-02 15:00N 47°46' W 004°58'5 9.7
2018-Jan-02 14:30N 47°49' W 005°04'5 9.3
2018-Jan-02 13:59N 47°52' W 005°09'9 8.7
2018-Jan-02 12:58N 47°57' W 005°20'9 8.7
2018-Jan-02 11:59N 48°04' W 005°28'9 9.2
2018-Jan-02 10:59N 48°12' W 005°36'  

Dump ship's entire track history